sensor_id;sensor_type;location;lat;lon;timestamp;P1;durP1;ratioP1;P2;durP2;ratioP2
18142;SDS011;9197;50.930;3.140;2023-05-14T00:00:30;40.57;;;27.97;;
18142;SDS011;9197;50.930;3.140;2023-05-14T00:02:57;44.57;;;28.93;;
18142;SDS011;9197;50.930;3.140;2023-05-14T00:05:24;41.77;;;27.40;;
18142;SDS011;9197;50.930;3.140;2023-05-14T00:07:52;36.80;;;28.47;;
18142;SDS011;9197;50.930;3.140;2023-05-14T00:10:20;43.13;;;28.90;;
18142;SDS011;9197;50.930;3.140;2023-05-14T00:12:49;37.93;;;26.90;;
18142;SDS011;9197;50.930;3.140;2023-05-14T00:15:16;39.03;;;29.83;;
18142;SDS011;9197;50.930;3.140;2023-05-14T00:17:44;40.43;;;27.20;;
18142;SDS011;9197;50.930;3.140;2023-05-14T00:20:11;38.47;;;29.27;;
18142;SDS011;9197;50.930;3.140;2023-05-14T00:22:39;39.43;;;29.27;;
18142;SDS011;9197;50.930;3.140;2023-05-14T00:25:07;36.33;;;30.13;;
18142;SDS011;9197;50.930;3.140;2023-05-14T00:27:36;37.50;;;29.87;;
18142;SDS011;9197;50.930;3.140;2023-05-14T00:30:04;40.23;;;29.97;;
18142;SDS011;9197;50.930;3.140;2023-05-14T00:32:31;43.53;;;31.20;;
18142;SDS011;9197;50.930;3.140;2023-05-14T00:34:59;48.33;;;33.17;;
18142;SDS011;9197;50.930;3.140;2023-05-14T00:37:28;39.23;;;31.53;;
18142;SDS011;9197;50.930;3.140;2023-05-14T00:39:55;41.30;;;31.07;;
18142;SDS011;9197;50.930;3.140;2023-05-14T00:42:23;42.10;;;32.00;;
18142;SDS011;9197;50.930;3.140;2023-05-14T00:44:52;46.40;;;33.30;;
18142;SDS011;9197;50.930;3.140;2023-05-14T00:47:19;44.30;;;31.90;;
18142;SDS011;9197;50.930;3.140;2023-05-14T00:49:46;39.03;;;29.93;;
18142;SDS011;9197;50.930;3.140;2023-05-14T00:52:14;43.27;;;30.37;;
18142;SDS011;9197;50.930;3.140;2023-05-14T00:54:42;38.83;;;28.10;;
18142;SDS011;9197;50.930;3.140;2023-05-14T00:57:10;37.03;;;28.77;;
18142;SDS011;9197;50.930;3.140;2023-05-14T00:59:37;34.40;;;27.33;;
18142;SDS011;9197;50.930;3.140;2023-05-14T01:02:08;35.17;;;29.37;;
18142;SDS011;9197;50.930;3.140;2023-05-14T01:04:35;38.67;;;27.57;;
18142;SDS011;9197;50.930;3.140;2023-05-14T01:07:07;37.87;;;27.60;;
18142;SDS011;9197;50.930;3.140;2023-05-14T01:09:37;37.70;;;28.87;;
18142;SDS011;9197;50.930;3.140;2023-05-14T01:12:07;41.27;;;28.20;;
18142;SDS011;9197;50.930;3.140;2023-05-14T01:14:37;37.20;;;28.47;;
18142;SDS011;9197;50.930;3.140;2023-05-14T01:17:08;37.53;;;28.47;;
18142;SDS011;9197;50.930;3.140;2023-05-14T01:19:38;37.30;;;30.17;;
18142;SDS011;9197;50.930;3.140;2023-05-14T01:22:07;35.77;;;27.53;;
18142;SDS011;9197;50.930;3.140;2023-05-14T01:24:34;39.07;;;27.07;;
18142;SDS011;9197;50.930;3.140;2023-05-14T01:27:09;35.83;;;29.20;;
18142;SDS011;9197;50.930;3.140;2023-05-14T01:29:39;35.10;;;26.93;;
18142;SDS011;9197;50.930;3.140;2023-05-14T01:32:07;43.97;;;30.17;;
18142;SDS011;9197;50.930;3.140;2023-05-14T01:34:36;42.73;;;29.27;;
18142;SDS011;9197;50.930;3.140;2023-05-14T01:37:04;42.60;;;30.57;;
18142;SDS011;9197;50.930;3.140;2023-05-14T01:39:34;34.67;;;29.80;;
18142;SDS011;9197;50.930;3.140;2023-05-14T01:42:03;35.40;;;29.57;;
18142;SDS011;9197;50.930;3.140;2023-05-14T01:44:31;39.93;;;30.40;;
18142;SDS011;9197;50.930;3.140;2023-05-14T01:46:59;47.07;;;33.57;;
18142;SDS011;9197;50.930;3.140;2023-05-14T01:49:26;39.97;;;31.63;;
18142;SDS011;9197;50.930;3.140;2023-05-14T01:51:53;41.10;;;33.87;;
18142;SDS011;9197;50.930;3.140;2023-05-14T01:54:20;44.20;;;34.27;;
18142;SDS011;9197;50.930;3.140;2023-05-14T01:56:50;38.37;;;32.30;;
18142;SDS011;9197;50.930;3.140;2023-05-14T01:59:17;36.07;;;30.37;;
18142;SDS011;9197;50.930;3.140;2023-05-14T02:01:44;42.67;;;32.13;;
18142;SDS011;9197;50.930;3.140;2023-05-14T02:04:11;46.20;;;34.13;;
18142;SDS011;9197;50.930;3.140;2023-05-14T02:06:39;51.57;;;36.13;;
18142;SDS011;9197;50.930;3.140;2023-05-14T02:09:06;47.17;;;36.00;;
18142;SDS011;9197;50.930;3.140;2023-05-14T02:11:33;46.13;;;35.17;;
18142;SDS011;9197;50.930;3.140;2023-05-14T02:14:02;45.67;;;36.20;;
18142;SDS011;9197;50.930;3.140;2023-05-14T02:16:30;46.70;;;35.77;;
18142;SDS011;9197;50.930;3.140;2023-05-14T02:18:57;55.73;;;35.67;;
18142;SDS011;9197;50.930;3.140;2023-05-14T02:21:24;43.87;;;34.30;;
18142;SDS011;9197;50.930;3.140;2023-05-14T02:23:52;50.03;;;36.40;;
18142;SDS011;9197;50.930;3.140;2023-05-14T02:26:20;49.90;;;36.43;;
18142;SDS011;9197;50.930;3.140;2023-05-14T02:28:48;42.37;;;33.87;;
18142;SDS011;9197;50.930;3.140;2023-05-14T02:31:17;48.90;;;35.70;;
18142;SDS011;9197;50.930;3.140;2023-05-14T02:33:44;46.67;;;36.37;;
18142;SDS011;9197;50.930;3.140;2023-05-14T02:36:12;52.73;;;38.53;;
18142;SDS011;9197;50.930;3.140;2023-05-14T02:38:39;50.93;;;37.47;;
18142;SDS011;9197;50.930;3.140;2023-05-14T02:41:07;48.87;;;35.50;;
18142;SDS011;9197;50.930;3.140;2023-05-14T02:43:34;46.40;;;35.50;;
18142;SDS011;9197;50.930;3.140;2023-05-14T02:46:01;49.63;;;37.53;;
18142;SDS011;9197;50.930;3.140;2023-05-14T02:48:30;49.73;;;37.57;;
18142;SDS011;9197;50.930;3.140;2023-05-14T02:50:57;49.33;;;34.97;;
18142;SDS011;9197;50.930;3.140;2023-05-14T02:53:25;48.07;;;35.57;;
18142;SDS011;9197;50.930;3.140;2023-05-14T02:55:55;45.13;;;35.23;;
18142;SDS011;9197;50.930;3.140;2023-05-14T02:58:22;47.73;;;35.77;;
18142;SDS011;9197;50.930;3.140;2023-05-14T03:00:50;47.30;;;35.33;;
18142;SDS011;9197;50.930;3.140;2023-05-14T03:03:17;45.97;;;34.27;;
18142;SDS011;9197;50.930;3.140;2023-05-14T03:05:46;46.13;;;35.90;;
18142;SDS011;9197;50.930;3.140;2023-05-14T03:08:14;45.33;;;34.00;;
18142;SDS011;9197;50.930;3.140;2023-05-14T03:10:41;45.10;;;33.73;;
18142;SDS011;9197;50.930;3.140;2023-05-14T03:13:09;47.80;;;33.97;;
18142;SDS011;9197;50.930;3.140;2023-05-14T03:15:36;40.10;;;32.10;;
18142;SDS011;9197;50.930;3.140;2023-05-14T03:18:03;44.10;;;35.53;;
18142;SDS011;9197;50.930;3.140;2023-05-14T03:20:31;43.27;;;32.43;;
18142;SDS011;9197;50.930;3.140;2023-05-14T03:23:00;42.50;;;32.83;;
18142;SDS011;9197;50.930;3.140;2023-05-14T03:25:27;49.23;;;35.50;;
18142;SDS011;9197;50.930;3.140;2023-05-14T03:27:54;44.67;;;33.20;;
18142;SDS011;9197;50.930;3.140;2023-05-14T03:30:22;42.60;;;32.27;;
18142;SDS011;9197;50.930;3.140;2023-05-14T03:32:49;41.70;;;33.23;;
18142;SDS011;9197;50.930;3.140;2023-05-14T03:35:16;49.33;;;32.47;;
18142;SDS011;9197;50.930;3.140;2023-05-14T03:37:44;45.20;;;31.67;;
18142;SDS011;9197;50.930;3.140;2023-05-14T03:40:19;41.77;;;31.47;;
18142;SDS011;9197;50.930;3.140;2023-05-14T03:42:46;38.33;;;31.73;;
18142;SDS011;9197;50.930;3.140;2023-05-14T03:45:14;42.33;;;34.47;;
18142;SDS011;9197;50.930;3.140;2023-05-14T03:47:41;39.90;;;31.83;;
18142;SDS011;9197;50.930;3.140;2023-05-14T03:50:08;46.53;;;31.77;;
18142;SDS011;9197;50.930;3.140;2023-05-14T03:52:36;41.10;;;31.10;;
18142;SDS011;9197;50.930;3.140;2023-05-14T03:55:03;42.60;;;31.47;;
18142;SDS011;9197;50.930;3.140;2023-05-14T03:57:32;37.90;;;32.13;;
18142;SDS011;9197;50.930;3.140;2023-05-14T04:00:00;37.93;;;31.77;;
18142;SDS011;9197;50.930;3.140;2023-05-14T04:02:28;35.00;;;29.30;;
18142;SDS011;9197;50.930;3.140;2023-05-14T04:04:55;44.00;;;32.20;;
18142;SDS011;9197;50.930;3.140;2023-05-14T04:07:22;44.43;;;32.97;;
18142;SDS011;9197;50.930;3.140;2023-05-14T04:09:50;48.67;;;31.47;;
18142;SDS011;9197;50.930;3.140;2023-05-14T04:12:17;41.07;;;32.23;;
18142;SDS011;9197;50.930;3.140;2023-05-14T04:14:46;39.73;;;33.47;;
18142;SDS011;9197;50.930;3.140;2023-05-14T04:17:13;43.40;;;33.57;;
18142;SDS011;9197;50.930;3.140;2023-05-14T04:19:40;49.13;;;35.00;;
18142;SDS011;9197;50.930;3.140;2023-05-14T04:22:08;44.20;;;35.03;;
18142;SDS011;9197;50.930;3.140;2023-05-14T04:24:35;42.90;;;34.73;;
18142;SDS011;9197;50.930;3.140;2023-05-14T04:27:03;44.80;;;34.67;;
18142;SDS011;9197;50.930;3.140;2023-05-14T04:29:31;43.73;;;35.47;;
18142;SDS011;9197;50.930;3.140;2023-05-14T04:32:00;50.30;;;38.27;;
18142;SDS011;9197;50.930;3.140;2023-05-14T04:34:27;50.90;;;37.00;;
18142;SDS011;9197;50.930;3.140;2023-05-14T04:36:55;52.17;;;37.93;;
18142;SDS011;9197;50.930;3.140;2023-05-14T04:39:22;44.00;;;35.63;;
18142;SDS011;9197;50.930;3.140;2023-05-14T04:41:49;44.37;;;37.10;;
18142;SDS011;9197;50.930;3.140;2023-05-14T04:44:17;52.30;;;38.07;;
18142;SDS011;9197;50.930;3.140;2023-05-14T04:46:44;46.63;;;35.37;;
18142;SDS011;9197;50.930;3.140;2023-05-14T04:49:13;45.03;;;34.20;;
18142;SDS011;9197;50.930;3.140;2023-05-14T04:51:40;40.27;;;31.60;;
18142;SDS011;9197;50.930;3.140;2023-05-14T04:54:07;43.43;;;30.57;;
18142;SDS011;9197;50.930;3.140;2023-05-14T04:56:35;40.17;;;29.13;;
18142;SDS011;9197;50.930;3.140;2023-05-14T04:59:02;33.77;;;27.53;;
18142;SDS011;9197;50.930;3.140;2023-05-14T05:01:30;41.10;;;29.80;;
18142;SDS011;9197;50.930;3.140;2023-05-14T05:03:57;39.40;;;27.60;;
18142;SDS011;9197;50.930;3.140;2023-05-14T05:06:26;34.17;;;26.63;;
18142;SDS011;9197;50.930;3.140;2023-05-14T05:08:54;39.13;;;28.50;;
18142;SDS011;9197;50.930;3.140;2023-05-14T05:11:21;32.03;;;27.60;;
18142;SDS011;9197;50.930;3.140;2023-05-14T05:13:48;37.20;;;29.23;;
18142;SDS011;9197;50.930;3.140;2023-05-14T05:16:16;35.77;;;27.13;;
18142;SDS011;9197;50.930;3.140;2023-05-14T05:18:43;38.17;;;28.83;;
18142;SDS011;9197;50.930;3.140;2023-05-14T05:21:10;41.33;;;30.80;;
18142;SDS011;9197;50.930;3.140;2023-05-14T05:23:39;35.57;;;27.50;;
18142;SDS011;9197;50.930;3.140;2023-05-14T05:26:07;38.47;;;29.07;;
18142;SDS011;9197;50.930;3.140;2023-05-14T05:28:34;41.13;;;30.10;;
18142;SDS011;9197;50.930;3.140;2023-05-14T05:31:01;37.37;;;29.63;;
18142;SDS011;9197;50.930;3.140;2023-05-14T05:33:28;40.17;;;30.00;;
18142;SDS011;9197;50.930;3.140;2023-05-14T05:35:56;38.03;;;30.27;;
18142;SDS011;9197;50.930;3.140;2023-05-14T05:38:23;36.50;;;28.77;;
18142;SDS011;9197;50.930;3.140;2023-05-14T05:40:52;37.43;;;29.53;;
18142;SDS011;9197;50.930;3.140;2023-05-14T05:43:20;33.90;;;30.07;;
18142;SDS011;9197;50.930;3.140;2023-05-14T05:45:48;35.70;;;30.43;;
18142;SDS011;9197;50.930;3.140;2023-05-14T05:48:15;34.73;;;30.33;;
18142;SDS011;9197;50.930;3.140;2023-05-14T05:50:45;34.57;;;30.10;;
18142;SDS011;9197;50.930;3.140;2023-05-14T05:53:13;37.03;;;28.90;;
18142;SDS011;9197;50.930;3.140;2023-05-14T05:55:40;32.80;;;29.30;;
18142;SDS011;9197;50.930;3.140;2023-05-14T05:58:09;35.60;;;29.00;;
18142;SDS011;9197;50.930;3.140;2023-05-14T06:00:39;36.57;;;27.97;;
18142;SDS011;9197;50.930;3.140;2023-05-14T06:03:07;33.80;;;29.17;;
18142;SDS011;9197;50.930;3.140;2023-05-14T06:05:34;37.13;;;28.23;;
18142;SDS011;9197;50.930;3.140;2023-05-14T06:08:01;33.20;;;27.50;;
18142;SDS011;9197;50.930;3.140;2023-05-14T06:10:29;34.43;;;28.57;;
18142;SDS011;9197;50.930;3.140;2023-05-14T06:12:56;34.53;;;27.67;;
18142;SDS011;9197;50.930;3.140;2023-05-14T06:15:25;33.90;;;28.50;;
18142;SDS011;9197;50.930;3.140;2023-05-14T06:17:52;33.90;;;29.20;;
18142;SDS011;9197;50.930;3.140;2023-05-14T06:20:20;35.40;;;29.60;;
18142;SDS011;9197;50.930;3.140;2023-05-14T06:22:47;36.00;;;28.87;;
18142;SDS011;9197;50.930;3.140;2023-05-14T06:25:14;31.80;;;28.43;;
18142;SDS011;9197;50.930;3.140;2023-05-14T06:27:42;33.27;;;29.57;;
18142;SDS011;9197;50.930;3.140;2023-05-14T06:30:10;37.23;;;31.30;;
18142;SDS011;9197;50.930;3.140;2023-05-14T06:32:38;41.40;;;35.13;;
18142;SDS011;9197;50.930;3.140;2023-05-14T06:35:06;31.60;;;28.33;;
18142;SDS011;9197;50.930;3.140;2023-05-14T06:37:34;38.63;;;31.33;;
18142;SDS011;9197;50.930;3.140;2023-05-14T06:40:01;33.60;;;29.30;;
18142;SDS011;9197;50.930;3.140;2023-05-14T06:42:29;35.47;;;30.73;;
18142;SDS011;9197;50.930;3.140;2023-05-14T06:44:56;32.60;;;28.27;;
18142;SDS011;9197;50.930;3.140;2023-05-14T06:47:24;35.13;;;29.57;;
18142;SDS011;9197;50.930;3.140;2023-05-14T06:49:52;36.17;;;31.20;;
18142;SDS011;9197;50.930;3.140;2023-05-14T06:52:22;31.87;;;28.00;;
18142;SDS011;9197;50.930;3.140;2023-05-14T06:54:50;31.77;;;27.70;;
18142;SDS011;9197;50.930;3.140;2023-05-14T06:57:17;32.90;;;27.67;;
18142;SDS011;9197;50.930;3.140;2023-05-14T06:59:45;38.93;;;28.27;;
18142;SDS011;9197;50.930;3.140;2023-05-14T07:02:12;31.93;;;27.27;;
18142;SDS011;9197;50.930;3.140;2023-05-14T07:04:39;33.80;;;28.20;;
18142;SDS011;9197;50.930;3.140;2023-05-14T07:07:08;34.67;;;28.77;;
18142;SDS011;9197;50.930;3.140;2023-05-14T07:09:39;39.37;;;30.20;;
18142;SDS011;9197;50.930;3.140;2023-05-14T07:12:07;37.13;;;29.47;;
18142;SDS011;9197;50.930;3.140;2023-05-14T07:14:34;34.07;;;30.03;;
18142;SDS011;9197;50.930;3.140;2023-05-14T07:17:02;25.80;;;23.10;;
18142;SDS011;9197;50.930;3.140;2023-05-14T07:19:29;40.70;;;31.53;;
18142;SDS011;9197;50.930;3.140;2023-05-14T07:21:57;30.77;;;25.17;;
18142;SDS011;9197;50.930;3.140;2023-05-14T07:24:26;38.80;;;29.97;;
18142;SDS011;9197;50.930;3.140;2023-05-14T07:26:54;29.90;;;24.77;;
18142;SDS011;9197;50.930;3.140;2023-05-14T07:29:21;26.80;;;23.60;;
18142;SDS011;9197;50.930;3.140;2023-05-14T07:31:49;25.50;;;22.87;;
18142;SDS011;9197;50.930;3.140;2023-05-14T07:34:17;24.97;;;22.57;;
18142;SDS011;9197;50.930;3.140;2023-05-14T07:36:44;27.83;;;24.63;;
18142;SDS011;9197;50.930;3.140;2023-05-14T07:39:12;23.97;;;21.47;;
18142;SDS011;9197;50.930;3.140;2023-05-14T07:41:41;25.80;;;21.60;;
18142;SDS011;9197;50.930;3.140;2023-05-14T07:44:08;24.17;;;20.70;;
18142;SDS011;9197;50.930;3.140;2023-05-14T07:46:35;25.07;;;21.47;;
18142;SDS011;9197;50.930;3.140;2023-05-14T07:49:03;24.50;;;21.43;;
18142;SDS011;9197;50.930;3.140;2023-05-14T07:51:30;26.40;;;21.70;;
18142;SDS011;9197;50.930;3.140;2023-05-14T07:53:57;23.40;;;20.57;;
18142;SDS011;9197;50.930;3.140;2023-05-14T07:56:25;24.27;;;21.67;;
18142;SDS011;9197;50.930;3.140;2023-05-14T07:58:54;23.43;;;21.00;;
18142;SDS011;9197;50.930;3.140;2023-05-14T08:01:21;23.93;;;21.40;;
18142;SDS011;9197;50.930;3.140;2023-05-14T08:03:48;24.83;;;20.73;;
18142;SDS011;9197;50.930;3.140;2023-05-14T08:06:16;24.37;;;20.63;;
18142;SDS011;9197;50.930;3.140;2023-05-14T08:08:45;23.13;;;20.63;;
18142;SDS011;9197;50.930;3.140;2023-05-14T08:11:12;22.57;;;20.27;;
18142;SDS011;9197;50.930;3.140;2023-05-14T08:13:40;24.00;;;19.30;;
18142;SDS011;9197;50.930;3.140;2023-05-14T08:16:08;22.43;;;18.43;;
18142;SDS011;9197;50.930;3.140;2023-05-14T08:18:37;21.23;;;19.20;;
18142;SDS011;9197;50.930;3.140;2023-05-14T08:21:05;20.20;;;16.83;;
18142;SDS011;9197;50.930;3.140;2023-05-14T08:23:32;18.88;;;16.88;;
18142;SDS011;9197;50.930;3.140;2023-05-14T08:25:59;18.27;;;15.43;;
18142;SDS011;9197;50.930;3.140;2023-05-14T08:28:27;16.48;;;14.93;;
18142;SDS011;9197;50.930;3.140;2023-05-14T08:30:54;17.10;;;15.38;;
18142;SDS011;9197;50.930;3.140;2023-05-14T08:33:23;18.50;;;16.50;;
18142;SDS011;9197;50.930;3.140;2023-05-14T08:35:51;19.83;;;15.55;;
18142;SDS011;9197;50.930;3.140;2023-05-14T08:38:18;19.75;;;16.30;;
18142;SDS011;9197;50.930;3.140;2023-05-14T08:40:46;18.15;;;16.55;;
18142;SDS011;9197;50.930;3.140;2023-05-14T08:43:15;20.00;;;16.80;;
18142;SDS011;9197;50.930;3.140;2023-05-14T08:45:46;18.42;;;16.23;;
18142;SDS011;9197;50.930;3.140;2023-05-14T08:48:16;18.13;;;15.85;;
18142;SDS011;9197;50.930;3.140;2023-05-14T08:50:45;18.13;;;16.25;;
18142;SDS011;9197;50.930;3.140;2023-05-14T08:53:13;36.33;;;20.00;;
18142;SDS011;9197;50.930;3.140;2023-05-14T08:55:41;28.45;;;19.20;;
18142;SDS011;9197;50.930;3.140;2023-05-14T08:58:09;18.80;;;16.92;;
18142;SDS011;9197;50.930;3.140;2023-05-14T09:00:36;21.33;;;17.40;;
18142;SDS011;9197;50.930;3.140;2023-05-14T09:03:04;24.45;;;17.63;;
18142;SDS011;9197;50.930;3.140;2023-05-14T09:05:32;19.58;;;15.68;;
18142;SDS011;9197;50.930;3.140;2023-05-14T09:08:01;17.17;;;15.57;;
18142;SDS011;9197;50.930;3.140;2023-05-14T09:10:28;21.88;;;15.45;;
18142;SDS011;9197;50.930;3.140;2023-05-14T09:12:56;18.02;;;15.60;;
18142;SDS011;9197;50.930;3.140;2023-05-14T09:15:24;17.23;;;15.60;;
18142;SDS011;9197;50.930;3.140;2023-05-14T09:17:53;17.17;;;15.45;;
18142;SDS011;9197;50.930;3.140;2023-05-14T09:20:21;18.27;;;16.30;;
18142;SDS011;9197;50.930;3.140;2023-05-14T09:22:51;17.08;;;15.20;;
18142;SDS011;9197;50.930;3.140;2023-05-14T09:25:25;14.20;;;13.10;;
18142;SDS011;9197;50.930;3.140;2023-05-14T09:27:52;20.10;;;17.98;;
18142;SDS011;9197;50.930;3.140;2023-05-14T09:30:20;18.15;;;16.55;;
18142;SDS011;9197;50.930;3.140;2023-05-14T09:32:47;15.50;;;14.10;;
18142;SDS011;9197;50.930;3.140;2023-05-14T09:35:16;17.42;;;13.68;;
18142;SDS011;9197;50.930;3.140;2023-05-14T09:37:45;13.23;;;12.13;;
18142;SDS011;9197;50.930;3.140;2023-05-14T09:40:14;15.88;;;14.32;;
18142;SDS011;9197;50.930;3.140;2023-05-14T09:42:43;15.25;;;13.95;;
18142;SDS011;9197;50.930;3.140;2023-05-14T09:45:10;16.27;;;14.68;;
18142;SDS011;9197;50.930;3.140;2023-05-14T09:47:38;15.98;;;14.52;;
18142;SDS011;9197;50.930;3.140;2023-05-14T09:50:06;17.00;;;15.40;;
18142;SDS011;9197;50.930;3.140;2023-05-14T09:52:33;20.10;;;18.00;;
18142;SDS011;9197;50.930;3.140;2023-05-14T09:55:01;17.23;;;15.50;;
18142;SDS011;9197;50.930;3.140;2023-05-14T09:57:28;17.45;;;16.15;;
18142;SDS011;9197;50.930;3.140;2023-05-14T10:00:00;17.80;;;16.10;;
18142;SDS011;9197;50.930;3.140;2023-05-14T10:02:29;22.25;;;20.23;;
18142;SDS011;9197;50.930;3.140;2023-05-14T10:05:01;23.02;;;21.23;;
18142;SDS011;9197;50.930;3.140;2023-05-14T10:07:30;25.55;;;23.45;;
18142;SDS011;9197;50.930;3.140;2023-05-14T10:10:00;26.10;;;23.85;;
18142;SDS011;9197;50.930;3.140;2023-05-14T10:12:28;24.52;;;22.15;;
18142;SDS011;9197;50.930;3.140;2023-05-14T10:14:58;27.23;;;24.73;;
18142;SDS011;9197;50.930;3.140;2023-05-14T10:17:29;21.45;;;19.73;;
18142;SDS011;9197;50.930;3.140;2023-05-14T10:19:57;23.33;;;21.25;;
18142;SDS011;9197;50.930;3.140;2023-05-14T10:22:29;24.58;;;22.63;;
18142;SDS011;9197;50.930;3.140;2023-05-14T10:24:57;24.45;;;22.58;;
18142;SDS011;9197;50.930;3.140;2023-05-14T10:27:24;26.85;;;24.90;;
18142;SDS011;9197;50.930;3.140;2023-05-14T10:29:52;25.10;;;23.17;;
18142;SDS011;9197;50.930;3.140;2023-05-14T10:32:22;31.90;;;29.35;;
18142;SDS011;9197;50.930;3.140;2023-05-14T10:34:50;25.10;;;22.98;;
18142;SDS011;9197;50.930;3.140;2023-05-14T10:37:19;22.40;;;20.42;;
18142;SDS011;9197;50.930;3.140;2023-05-14T10:39:47;28.23;;;25.92;;
18142;SDS011;9197;50.930;3.140;2023-05-14T10:42:16;21.95;;;20.10;;
18142;SDS011;9197;50.930;3.140;2023-05-14T10:44:50;21.83;;;19.92;;
18142;SDS011;9197;50.930;3.140;2023-05-14T10:47:19;26.60;;;24.50;;
18142;SDS011;9197;50.930;3.140;2023-05-14T10:49:48;20.45;;;18.73;;
18142;SDS011;9197;50.930;3.140;2023-05-14T10:52:17;19.58;;;17.83;;
18142;SDS011;9197;50.930;3.140;2023-05-14T10:54:48;19.13;;;17.48;;
18142;SDS011;9197;50.930;3.140;2023-05-14T10:57:17;19.95;;;18.30;;
18142;SDS011;9197;50.930;3.140;2023-05-14T10:59:45;19.38;;;17.85;;
18142;SDS011;9197;50.930;3.140;2023-05-14T11:02:19;19.17;;;17.33;;
18142;SDS011;9197;50.930;3.140;2023-05-14T11:04:59;18.80;;;17.40;;
18142;SDS011;9197;50.930;3.140;2023-05-14T11:07:28;20.30;;;18.55;;
18142;SDS011;9197;50.930;3.140;2023-05-14T11:09:58;19.60;;;17.92;;
18142;SDS011;9197;50.930;3.140;2023-05-14T11:12:26;20.45;;;18.88;;
18142;SDS011;9197;50.930;3.140;2023-05-14T11:14:53;20.98;;;19.27;;
18142;SDS011;9197;50.930;3.140;2023-05-14T11:17:23;22.27;;;20.48;;
18142;SDS011;9197;50.930;3.140;2023-05-14T11:19:50;20.83;;;19.10;;
18142;SDS011;9197;50.930;3.140;2023-05-14T11:22:19;20.10;;;18.50;;
18142;SDS011;9197;50.930;3.140;2023-05-14T11:24:46;22.10;;;20.30;;
18142;SDS011;9197;50.930;3.140;2023-05-14T11:27:14;20.90;;;19.20;;
18142;SDS011;9197;50.930;3.140;2023-05-14T11:29:42;24.85;;;22.80;;
18142;SDS011;9197;50.930;3.140;2023-05-14T11:32:10;23.67;;;21.77;;
18142;SDS011;9197;50.930;3.140;2023-05-14T11:34:37;18.70;;;17.05;;
18142;SDS011;9197;50.930;3.140;2023-05-14T11:37:05;15.52;;;14.13;;
18142;SDS011;9197;50.930;3.140;2023-05-14T11:39:33;21.70;;;19.80;;
18142;SDS011;9197;50.930;3.140;2023-05-14T11:42:01;20.40;;;18.50;;
18142;SDS011;9197;50.930;3.140;2023-05-14T11:44:29;17.45;;;15.95;;
18142;SDS011;9197;50.930;3.140;2023-05-14T11:46:58;16.63;;;15.25;;
18142;SDS011;9197;50.930;3.140;2023-05-14T11:49:26;16.60;;;15.07;;
18142;SDS011;9197;50.930;3.140;2023-05-14T11:51:57;14.57;;;13.25;;
18142;SDS011;9197;50.930;3.140;2023-05-14T11:54:25;17.85;;;16.15;;
18142;SDS011;9197;50.930;3.140;2023-05-14T11:56:54;19.27;;;17.52;;
18142;SDS011;9197;50.930;3.140;2023-05-14T11:59:23;19.23;;;16.27;;
18142;SDS011;9197;50.930;3.140;2023-05-14T12:01:50;17.98;;;16.35;;
18142;SDS011;9197;50.930;3.140;2023-05-14T12:04:18;18.23;;;16.55;;
18142;SDS011;9197;50.930;3.140;2023-05-14T12:06:46;17.83;;;15.55;;
18142;SDS011;9197;50.930;3.140;2023-05-14T12:09:15;19.30;;;17.17;;
18142;SDS011;9197;50.930;3.140;2023-05-14T12:11:43;17.73;;;15.50;;
18142;SDS011;9197;50.930;3.140;2023-05-14T12:14:13;14.38;;;12.88;;
18142;SDS011;9197;50.930;3.140;2023-05-14T12:16:40;18.13;;;16.45;;
18142;SDS011;9197;50.930;3.140;2023-05-14T12:19:09;15.65;;;14.02;;
18142;SDS011;9197;50.930;3.140;2023-05-14T12:21:37;23.02;;;19.65;;
18142;SDS011;9197;50.930;3.140;2023-05-14T12:24:08;20.05;;;17.63;;
18142;SDS011;9197;50.930;3.140;2023-05-14T12:26:36;15.05;;;13.55;;
18142;SDS011;9197;50.930;3.140;2023-05-14T12:29:04;13.77;;;12.40;;
18142;SDS011;9197;50.930;3.140;2023-05-14T12:31:33;13.77;;;12.60;;
18142;SDS011;9197;50.930;3.140;2023-05-14T12:34:01;12.63;;;11.40;;
18142;SDS011;9197;50.930;3.140;2023-05-14T12:36:29;14.82;;;13.32;;
18142;SDS011;9197;50.930;3.140;2023-05-14T12:38:57;18.08;;;16.10;;
18142;SDS011;9197;50.930;3.140;2023-05-14T12:41:26;15.80;;;13.98;;
18142;SDS011;9197;50.930;3.140;2023-05-14T12:43:53;25.98;;;23.33;;
18142;SDS011;9197;50.930;3.140;2023-05-14T12:46:20;14.63;;;13.13;;
18142;SDS011;9197;50.930;3.140;2023-05-14T12:48:49;33.50;;;30.30;;
18142;SDS011;9197;50.930;3.140;2023-05-14T12:51:16;22.58;;;20.33;;
18142;SDS011;9197;50.930;3.140;2023-05-14T12:53:44;16.90;;;15.45;;
18142;SDS011;9197;50.930;3.140;2023-05-14T12:56:11;22.60;;;20.48;;
18142;SDS011;9197;50.930;3.140;2023-05-14T12:58:39;16.55;;;14.68;;
18142;SDS011;9197;50.930;3.140;2023-05-14T13:01:08;15.25;;;13.80;;
18142;SDS011;9197;50.930;3.140;2023-05-14T13:03:35;16.70;;;15.05;;
18142;SDS011;9197;50.930;3.140;2023-05-14T13:06:04;18.02;;;16.13;;
18142;SDS011;9197;50.930;3.140;2023-05-14T13:08:31;17.52;;;15.45;;
18142;SDS011;9197;50.930;3.140;2023-05-14T13:10:59;18.02;;;16.42;;
18142;SDS011;9197;50.930;3.140;2023-05-14T13:13:26;17.63;;;15.70;;
18142;SDS011;9197;50.930;3.140;2023-05-14T13:15:54;17.58;;;15.77;;
18142;SDS011;9197;50.930;3.140;2023-05-14T13:18:21;17.15;;;15.35;;
18142;SDS011;9197;50.930;3.140;2023-05-14T13:20:50;16.13;;;14.55;;
18142;SDS011;9197;50.930;3.140;2023-05-14T13:23:19;16.45;;;14.55;;
18142;SDS011;9197;50.930;3.140;2023-05-14T13:25:46;19.23;;;14.35;;
18142;SDS011;9197;50.930;3.140;2023-05-14T13:28:14;16.83;;;14.95;;
18142;SDS011;9197;50.930;3.140;2023-05-14T13:30:41;15.02;;;13.52;;
18142;SDS011;9197;50.930;3.140;2023-05-14T13:33:28;17.33;;;14.35;;
18142;SDS011;9197;50.930;3.140;2023-05-14T13:35:56;15.30;;;13.80;;
18142;SDS011;9197;50.930;3.140;2023-05-14T13:38:24;15.43;;;13.98;;
18142;SDS011;9197;50.930;3.140;2023-05-14T13:40:52;15.80;;;14.30;;
18142;SDS011;9197;50.930;3.140;2023-05-14T13:43:21;15.32;;;13.80;;
18142;SDS011;9197;50.930;3.140;2023-05-14T13:45:49;16.52;;;14.63;;
18142;SDS011;9197;50.930;3.140;2023-05-14T13:48:16;17.65;;;14.90;;
18142;SDS011;9197;50.930;3.140;2023-05-14T13:50:43;15.63;;;13.93;;
18142;SDS011;9197;50.930;3.140;2023-05-14T13:53:11;19.42;;;15.63;;
18142;SDS011;9197;50.930;3.140;2023-05-14T13:55:39;16.33;;;13.93;;
18142;SDS011;9197;50.930;3.140;2023-05-14T13:58:06;15.10;;;13.52;;
18142;SDS011;9197;50.930;3.140;2023-05-14T14:00:34;15.45;;;13.98;;
18142;SDS011;9197;50.930;3.140;2023-05-14T14:03:02;15.98;;;13.23;;
18142;SDS011;9197;50.930;3.140;2023-05-14T14:05:29;13.68;;;12.15;;
18142;SDS011;9197;50.930;3.140;2023-05-14T14:07:57;14.80;;;13.18;;
18142;SDS011;9197;50.930;3.140;2023-05-14T14:10:24;13.98;;;12.52;;
18142;SDS011;9197;50.930;3.140;2023-05-14T14:12:53;15.63;;;12.55;;
18142;SDS011;9197;50.930;3.140;2023-05-14T14:15:20;16.38;;;12.43;;
18142;SDS011;9197;50.930;3.140;2023-05-14T14:17:48;14.90;;;13.30;;
18142;SDS011;9197;50.930;3.140;2023-05-14T14:20:15;14.13;;;12.82;;
18142;SDS011;9197;50.930;3.140;2023-05-14T14:22:42;14.40;;;13.10;;
18142;SDS011;9197;50.930;3.140;2023-05-14T14:25:10;20.27;;;14.32;;
18142;SDS011;9197;50.930;3.140;2023-05-14T14:27:38;18.10;;;14.68;;
18142;SDS011;9197;50.930;3.140;2023-05-14T14:30:08;17.30;;;15.45;;
18142;SDS011;9197;50.930;3.140;2023-05-14T14:32:40;16.00;;;14.50;;
18142;SDS011;9197;50.930;3.140;2023-05-14T14:35:08;15.95;;;14.32;;
18142;SDS011;9197;50.930;3.140;2023-05-14T14:37:35;16.45;;;15.07;;